Time;durP1;ratioP1;P1;durP2;ratioP2;P2;SDS_P1;SDS_P2;PMS_P1;PMS_P2;Temp;Humidity;BMP_temperature;BMP_pressure;BME280_temperature;BME280_humidity;BME280_pressure;Samples;Min_cycle;Max_cycle;Signal;HPM_P1;HPM_P2
2020/12/03 00:02:00;;;;;;;56.85;25.35;;;-1.00;99.90;;;;;;5050091;28;20029;-77
2020/12/03 00:04:26;;;;;;;62.30;25.67;;;-1.00;99.90;;;;;;5049761;28;20460;-77
2020/12/03 00:06:55;;;;;;;65.72;27.58;;;-1.00;99.90;;;;;;5049663;28;20056;-77
2020/12/03 00:09:22;;;;;;;61.42;24.23;;;-0.90;99.90;;;;;;5049733;28;20450;-77
2020/12/03 00:11:54;;;;;;;61.17;26.25;;;-0.90;99.90;;;;;;5049753;28;20402;-77
2020/12/03 00:14:20;;;;;;;63.22;24.83;;;-0.90;99.90;;;;;;5051174;28;20107;-77
2020/12/03 00:16:47;;;;;;;62.00;25.77;;;-0.90;99.90;;;;;;5050800;28;20060;-77
2020/12/03 00:19:14;;;;;;;62.13;26.30;;;-0.90;99.90;;;;;;5049620;28;20533;-77
2020/12/03 00:21:41;;;;;;;63.05;27.25;;;-0.90;99.90;;;;;;5051325;28;20047;-77
2020/12/03 00:24:09;;;;;;;63.67;25.48;;;-0.90;99.90;;;;;;5049483;28;20078;-77
2020/12/03 00:26:34;;;;;;;56.55;25.65;;;-0.90;99.90;;;;;;5049520;28;20465;-77
2020/12/03 00:29:00;;;;;;;60.10;25.98;;;-1.00;99.90;;;;;;5050728;28;20112;-77
2020/12/03 00:31:27;;;;;;;62.58;26.80;;;-1.00;99.90;;;;;;5050667;28;20028;-77
2020/12/03 00:33:54;;;;;;;61.58;27.85;;;-1.00;99.90;;;;;;5052041;28;20042;-77
2020/12/03 00:36:20;;;;;;;58.17;25.58;;;-1.00;99.90;;;;;;5051566;28;20029;-77
2020/12/03 00:38:46;;;;;;;55.03;25.40;;;-0.90;99.90;;;;;;5049122;28;20033;-77
2020/12/03 00:41:13;;;;;;;57.78;26.77;;;-0.90;99.90;;;;;;5050605;28;20033;-77
2020/12/03 00:43:38;;;;;;;56.80;25.20;;;-0.80;99.90;;;;;;5050249;28;20402;-77
2020/12/03 00:46:04;;;;;;;63.97;25.10;;;-0.90;99.90;;;;;;5049037;28;20021;-77
2020/12/03 00:48:30;;;;;;;62.65;28.45;;;-0.90;99.90;;;;;;5050179;28;20029;-77
2020/12/03 00:50:56;;;;;;;62.63;26.60;;;-0.90;99.90;;;;;;5050475;28;20025;-77
2020/12/03 00:53:22;;;;;;;57.20;25.20;;;-0.90;99.90;;;;;;5048943;28;20117;-77
2020/12/03 00:55:47;;;;;;;62.55;28.13;;;-0.90;99.90;;;;;;5048892;28;20135;-77
2020/12/03 00:58:14;;;;;;;61.40;26.05;;;-0.90;99.90;;;;;;5048667;28;20035;-76
2020/12/03 01:00:39;;;;;;;60.67;26.40;;;-0.80;99.90;;;;;;5050134;28;20034;-77
2020/12/03 01:03:06;;;;;;;62.58;26.90;;;-0.80;99.90;;;;;;5049939;28;20108;-77
2020/12/03 01:05:32;;;;;;;59.10;26.35;;;-0.80;99.90;;;;;;5048777;28;20028;-77
2020/12/03 01:07:58;;;;;;;61.88;27.25;;;-0.80;99.90;;;;;;5049756;28;20021;-77
2020/12/03 01:10:29;;;;;;;65.10;26.13;;;-0.80;99.90;;;;;;5048526;28;20107;-77
2020/12/03 01:12:56;;;;;;;54.97;19.80;;;-0.80;99.90;;;;;;5049867;28;20032;-77
2020/12/03 01:15:22;;;;;;;72.82;30.20;;;-0.80;99.90;;;;;;5048466;28;20029;-77
2020/12/03 01:17:48;;;;;;;64.45;26.42;;;-0.80;99.90;;;;;;5049657;28;20032;-77
2020/12/03 01:20:20;;;;;;;60.15;25.65;;;-0.80;99.90;;;;;;5048443;28;20374;-77
2020/12/03 01:22:46;;;;;;;61.58;26.95;;;-0.90;99.90;;;;;;5048270;28;20027;-77
2020/12/03 01:25:11;;;;;;;70.82;27.83;;;-0.80;99.90;;;;;;5049616;28;20021;-77
2020/12/03 01:27:38;;;;;;;66.88;28.25;;;-0.80;99.90;;;;;;5048275;28;20044;-77
2020/12/03 01:30:05;;;;;;;70.90;28.95;;;-0.80;99.90;;;;;;5049589;28;20054;-77
2020/12/03 01:32:31;;;;;;;66.75;28.00;;;-0.80;99.90;;;;;;5049512;28;20025;-77
2020/12/03 01:34:56;;;;;;;67.18;26.83;;;-0.80;99.90;;;;;;5049468;28;20104;-77
2020/12/03 01:37:22;;;;;;;69.28;28.50;;;-0.80;99.90;;;;;;5049624;28;20036;-77
2020/12/03 01:39:47;;;;;;;69.07;29.02;;;-0.80;99.90;;;;;;5049367;28;20021;-77
2020/12/03 01:42:13;;;;;;;62.85;27.70;;;-0.80;99.90;;;;;;5047991;28;20378;-77
2020/12/03 01:44:49;;;;;;;67.20;27.60;;;-0.80;99.90;;;;;;5049174;28;20501;-77
2020/12/03 01:49:48;;;;;;;62.47;26.20;;;-0.70;99.90;;;;;;5067754;28;20410;-73
2020/12/03 01:52:13;;;;;;;61.78;26.20;;;-0.70;99.90;;;;;;5051803;28;20397;-73
2020/12/03 01:54:39;;;;;;;63.72;28.00;;;-0.80;99.90;;;;;;5051408;28;20034;-73
2020/12/03 01:57:15;;;;;;;64.07;26.90;;;-0.70;99.90;;;;;;5051536;28;20028;-75
2020/12/03 02:00:05;;;;;;;65.00;25.42;;;-0.70;99.90;;;;;;5031515;28;20494;-74
2020/12/03 02:02:30;;;;;;;61.65;26.17;;;-0.70;99.90;;;;;;5031402;28;20115;-73
2020/12/03 02:05:08;;;;;;;67.35;28.55;;;-0.70;99.90;;;;;;5031387;28;20166;-74
2020/12/03 02:07:33;;;;;;;67.20;28.33;;;-0.70;99.90;;;;;;5049137;28;20021;-74
2020/12/03 02:09:59;;;;;;;65.22;26.27;;;-0.70;99.90;;;;;;5049424;28;20032;-74
2020/12/03 02:12:24;;;;;;;68.53;27.85;;;-0.70;99.90;;;;;;5031456;28;20029;-73
2020/12/03 02:14:50;;;;;;;68.47;27.35;;;-0.70;99.90;;;;;;5031400;28;20025;-73
2020/12/03 02:17:15;;;;;;;63.67;26.33;;;-0.70;99.90;;;;;;5031198;28;20029;-74
2020/12/03 02:19:41;;;;;;;64.95;26.35;;;-0.70;99.90;;;;;;5049103;28;20451;-73
2020/12/03 02:22:08;;;;;;;61.70;25.85;;;-0.70;99.90;;;;;;5050450;28;20374;-73
2020/12/03 02:24:36;;;;;;;59.22;26.17;;;-0.70;99.90;;;;;;5035227;28;20414;-74
2020/12/03 02:27:04;;;;;;;64.97;27.02;;;-0.70;99.90;;;;;;5035078;28;20025;-74
2020/12/03 02:29:29;;;;;;;61.28;26.75;;;-0.60;99.90;;;;;;5035016;28;20025;-74
2020/12/03 02:31:55;;;;;;;60.03;25.85;;;-0.60;99.90;;;;;;5035049;28;20021;-73
2020/12/03 02:34:21;;;;;;;63.92;25.83;;;-0.60;99.90;;;;;;5035041;28;20119;-73
2020/12/03 02:36:55;;;;;;;64.43;27.63;;;-0.60;99.90;;;;;;5052986;28;20474;-74
2020/12/03 02:39:21;;;;;;;60.42;26.85;;;-0.60;99.90;;;;;;5052859;28;20021;-73
2020/12/03 02:41:47;;;;;;;56.20;25.98;;;-0.60;99.90;;;;;;5053556;28;20370;-73
2020/12/03 02:44:14;;;;;;;64.13;26.50;;;-0.60;99.90;;;;;;5034749;28;20029;-73
2020/12/03 02:46:40;;;;;;;61.90;27.30;;;-0.60;99.90;;;;;;5034806;28;20025;-73
2020/12/03 02:49:06;;;;;;;61.45;27.67;;;-0.60;99.90;;;;;;5034451;28;20040;-73
2020/12/03 02:51:31;;;;;;;62.08;26.10;;;-0.60;99.90;;;;;;5052646;28;20367;-73
2020/12/03 02:53:57;;;;;;;58.67;26.85;;;-0.60;99.90;;;;;;5034631;28;20032;-73
2020/12/03 02:56:22;;;;;;;62.95;26.77;;;-0.60;99.90;;;;;;5034778;28;20120;-73
2020/12/03 02:58:48;;;;;;;60.67;27.33;;;-0.70;99.90;;;;;;5052347;28;20029;-73
2020/12/03 03:01:14;;;;;;;61.17;27.33;;;-0.60;99.90;;;;;;5034563;28;20028;-73
2020/12/03 03:03:39;;;;;;;63.17;28.35;;;-0.60;99.90;;;;;;5052324;28;20402;-74
2020/12/03 03:06:05;;;;;;;62.17;26.90;;;-0.60;99.90;;;;;;5034588;28;20454;-73
2020/12/03 03:08:30;;;;;;;65.40;27.98;;;-0.60;99.90;;;;;;5034491;28;20033;-73
2020/12/03 03:10:56;;;;;;;67.65;29.10;;;-0.60;99.90;;;;;;5034351;28;20366;-73
2020/12/03 03:13:21;;;;;;;59.33;26.40;;;-0.60;99.90;;;;;;5052329;28;20034;-73
2020/12/03 03:15:47;;;;;;;60.90;27.20;;;-0.70;99.90;;;;;;5052107;28;20374;-73
2020/12/03 03:18:13;;;;;;;62.85;26.83;;;-0.70;99.90;;;;;;5034244;28;20021;-73
2020/12/03 03:20:38;;;;;;;58.28;26.45;;;-0.70;99.90;;;;;;5034228;28;20021;-73
2020/12/03 03:23:04;;;;;;;57.28;26.27;;;-0.80;99.90;;;;;;5034275;28;20512;-73
2020/12/03 03:25:30;;;;;;;59.75;27.38;;;-0.70;99.90;;;;;;5051992;28;20047;-73
2020/12/03 03:27:56;;;;;;;67.60;27.95;;;-0.70;99.90;;;;;;5034003;28;20025;-74
2020/12/03 03:30:22;;;;;;;61.10;27.05;;;-0.70;99.90;;;;;;5051892;28;20021;-73
2020/12/03 03:32:47;;;;;;;62.92;27.73;;;-0.80;99.90;;;;;;5051339;28;20027;-73
2020/12/03 03:35:16;;;;;;;58.03;28.25;;;-0.70;99.90;;;;;;5051042;28;20089;-73
2020/12/03 03:37:42;;;;;;;62.63;27.50;;;-0.70;99.90;;;;;;5034008;28;20031;-73
2020/12/03 03:40:07;;;;;;;62.55;27.17;;;-0.80;99.90;;;;;;5033878;28;20407;-73
2020/12/03 03:42:33;;;;;;;68.60;29.67;;;-0.80;99.90;;;;;;5051655;28;20033;-73
2020/12/03 03:44:59;;;;;;;65.55;28.83;;;-0.70;99.90;;;;;;5033770;28;20517;-73
2020/12/03 03:47:25;;;;;;;60.60;27.77;;;-0.80;99.90;;;;;;5033911;28;20028;-74
2020/12/03 03:49:51;;;;;;;67.78;28.83;;;-0.80;99.90;;;;;;5034151;28;20029;-73
2020/12/03 03:52:16;;;;;;;64.22;26.95;;;-0.70;99.90;;;;;;5034030;28;20031;-73
2020/12/03 03:54:42;;;;;;;66.15;29.42;;;-0.70;99.90;;;;;;5051909;28;20035;-73
2020/12/03 03:57:08;;;;;;;68.63;29.42;;;-0.70;99.90;;;;;;5052114;28;20048;-73
2020/12/03 03:59:34;;;;;;;64.97;28.70;;;-0.70;99.90;;;;;;5034029;28;20405;-73
2020/12/03 04:01:59;;;;;;;71.03;29.00;;;-0.80;99.90;;;;;;5051777;28;20040;-74
2020/12/03 04:04:25;;;;;;;68.32;29.08;;;-0.80;99.90;;;;;;5033756;28;20029;-73
2020/12/03 04:06:50;;;;;;;73.57;29.13;;;-0.80;99.90;;;;;;5033991;28;20027;-73
2020/12/03 04:09:15;;;;;;;69.32;30.75;;;-0.80;99.90;;;;;;5033866;28;20112;-73
2020/12/03 04:11:43;;;;;;;70.88;32.40;;;-0.80;99.90;;;;;;5051779;28;20389;-73
2020/12/03 04:14:09;;;;;;;75.10;30.80;;;-0.80;99.90;;;;;;5033758;28;20112;-73
2020/12/03 04:16:34;;;;;;;71.55;31.33;;;-0.80;99.90;;;;;;5051497;28;20064;-73
2020/12/03 04:19:00;;;;;;;74.18;32.05;;;-0.80;99.90;;;;;;5033331;28;20025;-73
2020/12/03 04:21:25;;;;;;;66.50;29.33;;;-0.80;99.90;;;;;;5051209;28;20025;-73
2020/12/03 04:23:51;;;;;;;70.60;28.90;;;-0.80;99.90;;;;;;5051158;28;20029;-73
2020/12/03 04:26:16;;;;;;;70.72;31.88;;;-0.80;99.90;;;;;;5051375;28;20017;-74
2020/12/03 04:28:42;;;;;;;62.67;29.17;;;-0.80;99.90;;;;;;5051269;28;20021;-73
2020/12/03 04:31:08;;;;;;;70.07;30.38;;;-0.80;99.90;;;;;;5050886;28;20052;-73
2020/12/03 04:33:34;;;;;;;75.38;30.83;;;-0.80;99.90;;;;;;5050697;28;20039;-73
2020/12/03 04:36:00;;;;;;;76.88;31.55;;;-0.80;99.90;;;;;;5050763;28;20029;-73
2020/12/03 04:38:26;;;;;;;74.18;30.83;;;-0.80;99.90;;;;;;5050878;28;20059;-73
2020/12/03 04:40:52;;;;;;;75.80;30.95;;;-0.80;99.90;;;;;;5050644;28;20394;-73
2020/12/03 04:43:26;;;;;;;76.28;31.17;;;-0.80;99.90;;;;;;5050753;28;20028;-73
2020/12/03 04:46:02;;;;;;;85.50;33.58;;;-0.80;99.90;;;;;;5050385;28;20437;-73
2020/12/03 04:49:05;;;;;;;66.75;30.75;;;-0.80;99.90;;;;;;5032548;28;20033;-74
2020/12/03 04:51:49;;;;;;;;;;;-0.70;99.90;;;;;;5032825;28;20021;-74
2020/12/03 04:54:41;;;;;;;75.47;28.55;;;-0.70;99.90;;;;;;5032485;28;19905;-73
2020/12/03 04:57:25;;;;;;;72.73;33.20;;;-0.70;99.90;;;;;;5032471;28;20036;-74
2020/12/03 05:00:05;;;;;;;71.57;29.85;;;-0.80;99.90;;;;;;5050155;28;20310;-73
2020/12/03 05:02:56;;;;;;;68.97;30.13;;;-0.80;99.90;;;;;;5032299;28;20032;-74
2020/12/03 05:05:39;;;;;;;74.47;30.60;;;-0.70;99.90;;;;;;5032316;28;20075;-74
2020/12/03 05:08:24;;;;;;;77.07;30.40;;;-0.70;99.90;;;;;;5032514;28;20377;-73
2020/12/03 05:10:50;;;;;;;73.82;29.83;;;-0.80;99.90;;;;;;5032203;28;20024;-74
2020/12/03 05:13:16;;;;;;;84.30;34.65;;;-0.70;99.90;;;;;;5049953;28;20021;-74
2020/12/03 05:15:42;;;;;;;76.63;32.97;;;-0.80;99.90;;;;;;5049884;28;20025;-73
2020/12/03 05:18:50;;;;;;;78.38;33.92;;;-0.80;99.90;;;;;;5032020;28;20029;-73
2020/12/03 05:21:20;;;;;;;75.93;30.70;;;-0.80;99.90;;;;;;4986705;28;20045;-74
2020/12/03 05:23:46;;;;;;;80.28;33.88;;;-0.70;99.90;;;;;;5032078;28;20028;-74
2020/12/03 05:26:18;;;;;;;75.20;30.20;;;-0.70;99.90;;;;;;5032338;28;20381;-73
2020/12/03 05:29:07;;;;;;;77.03;32.30;;;-0.70;99.90;;;;;;5049729;28;20029;-74
2020/12/03 05:31:35;;;;;;;80.50;30.48;;;-0.70;99.90;;;;;;5049568;28;20041;-73
2020/12/03 05:34:10;;;;;;;78.25;31.55;;;-0.60;99.90;;;;;;5032048;28;20136;-73
2020/12/03 05:36:40;;;;;;;81.85;33.72;;;-0.60;99.90;;;;;;5031763;28;20108;-74
2020/12/03 05:39:13;;;;;;;77.70;32.28;;;-0.60;99.90;;;;;;5049789;28;20485;-74
2020/12/03 05:41:52;;;;;;;78.57;34.05;;;-0.70;99.90;;;;;;5031940;28;20025;-74
2020/12/03 05:44:23;;;;;;;84.50;33.28;;;-0.70;99.90;;;;;;5031813;28;20032;-73
2020/12/03 05:46:52;;;;;;;69.60;25.77;;;-0.70;99.90;;;;;;5031827;28;20061;-74
2020/12/03 05:49:20;;;;;;;86.32;33.85;;;-0.70;99.90;;;;;;5049442;28;20279;-74
2020/12/03 05:51:47;;;;;;;82.60;34.05;;;-0.70;99.90;;;;;;5032170;28;20390;-74
2020/12/03 05:54:12;;;;;;;80.75;31.70;;;-0.70;99.90;;;;;;5031863;28;20025;-73
2020/12/03 05:56:38;;;;;;;77.68;32.08;;;-0.70;99.90;;;;;;5049211;28;20032;-74
2020/12/03 05:59:25;;;;;;;92.13;33.85;;;-0.80;99.90;;;;;;5049543;28;20029;-74
2020/12/03 06:02:12;;;;;;;81.85;33.58;;;-0.80;99.90;;;;;;5031718;28;20075;-74
2020/12/03 06:04:48;;;;;;;89.47;32.67;;;-0.80;99.90;;;;;;5049631;28;20092;-74
2020/12/03 06:07:33;;;;;;;76.00;31.17;;;-0.80;99.90;;;;;;5031959;28;20021;-74
2020/12/03 06:10:22;;;;;;;76.38;32.20;;;-0.80;99.90;;;;;;5049473;28;20021;-74
2020/12/03 06:13:13;;;;;;;81.43;31.50;;;-0.80;99.90;;;;;;5049633;28;20489;-74
2020/12/03 06:15:55;;;;;;;76.47;31.55;;;-0.70;99.90;;;;;;5049590;28;20028;-75
2020/12/03 06:18:28;;;;;;;75.32;31.17;;;-0.80;99.90;;;;;;5049068;28;20025;-75
2020/12/03 06:21:31;;;;;;;83.60;31.85;;;-0.80;99.90;;;;;;5031222;28;20025;-74
2020/12/03 06:24:16;;;;;;;;;;;-0.70;99.90;;;;;;5031602;28;20028;-75
2020/12/03 06:26:43;;;;;;;75.13;30.52;;;-0.70;99.90;;;;;;5031329;28;20428;-75
2020/12/03 06:29:37;;;;;;;90.70;33.20;;;-0.70;99.90;;;;;;5048907;28;20436;-75
2020/12/03 06:32:25;;;;;;;84.15;34.75;;;-0.70;99.90;;;;;;5031965;28;20029;-75
2020/12/03 06:35:01;;;;;;;82.45;35.38;;;-0.70;99.90;;;;;;5048794;28;20394;-74
2020/12/03 06:37:42;;;;;;;80.75;33.03;;;-0.70;99.90;;;;;;5048808;28;20029;-75
2020/12/03 06:40:14;;;;;;;116.93;56.97;;;-0.60;99.90;;;;;;5049315;28;20117;-75
2020/12/03 06:43:10;;;;;;;85.20;36.15;;;-0.60;99.90;;;;;;5031269;28;20029;-75
2020/12/03 06:45:46;;;;;;;82.05;34.13;;;-0.60;99.90;;;;;;5049007;28;20016;-75
2020/12/03 06:48:23;;;;;;;76.30;32.20;;;-0.70;99.90;;;;;;5030846;28;20025;-75
2020/12/03 06:51:17;;;;;;;122.13;46.13;;;-0.70;99.90;;;;;;5031524;28;20095;-75
2020/12/03 06:53:48;;;;;;;86.13;37.08;;;-0.60;99.90;;;;;;5048707;28;20557;-75
2020/12/03 06:56:51;;;;;;;88.60;37.33;;;-0.60;99.90;;;;;;5049087;28;20107;-74
2020/12/03 06:59:32;;;;;;;94.78;37.85;;;-0.50;99.90;;;;;;5030912;28;20060;-75
2020/12/03 07:02:19;;;;;;;93.63;37.30;;;-0.50;99.90;;;;;;5048710;28;20031;-75
2020/12/03 07:04:44;;;;;;;127.43;47.03;;;-0.40;99.90;;;;;;5030788;28;20021;-74
2020/12/03 07:07:32;;;;;;;145.90;53.20;;;-0.50;99.90;;;;;;5030654;28;20021;-75
2020/12/03 07:10:07;;;;;;;159.90;52.60;;;-0.50;99.90;;;;;;5034439;28;20021;-75
2020/12/03 07:12:59;;;;;;;148.20;54.75;;;-0.50;99.90;;;;;;5034293;28;20024;-75
2020/12/03 07:16:02;;;;;;;131.15;48.60;;;-0.50;99.90;;;;;;5034274;28;20104;-75
2020/12/03 07:19:10;;;;;;;105.20;45.15;;;-0.60;99.90;;;;;;5034067;28;20035;-75
2020/12/03 07:21:51;;;;;;;99.25;36.72;;;-0.50;99.90;;;;;;5034168;28;20401;-75
2020/12/03 07:24:29;;;;;;;77.35;32.17;;;-0.50;99.90;;;;;;5051912;28;20029;-75
2020/12/03 07:27:33;;;;;;;84.28;35.40;;;-0.40;99.90;;;;;;5034035;28;20032;-75
2020/12/03 07:30:04;;;;;;;92.57;35.53;;;-0.30;99.90;;;;;;5052161;28;20482;-75
2020/12/03 07:32:50;;;;;;;82.03;35.80;;;-0.30;99.90;;;;;;5051729;28;20453;-75
2020/12/03 07:35:46;;;;;;;89.43;42.00;;;-0.20;99.90;;;;;;5052235;28;20473;-75
2020/12/03 07:38:17;;;;;;;78.18;34.50;;;-0.20;99.90;;;;;;5033856;28;20033;-75
2020/12/03 07:40:43;;;;;;;87.18;39.47;;;-0.10;99.90;;;;;;5051679;28;20441;-74
2020/12/03 07:43:32;;;;;;;103.82;45.33;;;-0.10;99.90;;;;;;5033650;28;20029;-75
2020/12/03 07:45:59;;;;;;;108.38;48.80;;;0.00;99.90;;;;;;5033889;28;20484;-75
2020/12/03 07:48:43;;;;;;;84.05;43.75;;;0.00;99.90;;;;;;5050614;23;20486;-75
2020/12/03 07:51:12;;;;;;;75.07;33.25;;;0.00;99.90;;;;;;5013789;28;20021;-75
2020/12/03 07:53:38;;;;;;;70.25;30.83;;;0.10;99.90;;;;;;5031478;28;20025;-75
2020/12/03 07:56:31;;;;;;;77.35;30.48;;;0.20;99.90;;;;;;5013701;28;20453;-76
2020/12/03 07:59:22;;;;;;;70.90;31.17;;;0.30;99.90;;;;;;5013665;28;20025;-76
2020/12/03 08:01:49;;;;;;;76.15;34.22;;;0.30;99.90;;;;;;5013515;28;20102;-75
2020/12/03 08:04:17;;;;;;;74.68;32.33;;;0.40;99.90;;;;;;5013622;28;20037;-75
2020/12/03 08:07:09;;;;;;;79.97;32.75;;;0.40;99.90;;;;;;5031600;28;20548;-75
2020/12/03 08:09:40;;;;;;;71.85;30.30;;;0.50;99.90;;;;;;5013613;28;20033;-76
2020/12/03 08:12:12;;;;;;;67.20;29.90;;;0.60;99.90;;;;;;5013639;28;20112;-75
2020/12/03 08:14:43;;;;;;;73.75;30.52;;;0.60;99.90;;;;;;5013593;28;20025;-76
2020/12/03 08:17:15;;;;;;;71.07;30.15;;;0.70;99.90;;;;;;5031677;28;20041;-74
2020/12/03 08:19:40;;;;;;;71.63;30.43;;;0.90;99.90;;;;;;5012968;28;20026;-74
2020/12/03 08:22:29;;;;;;;69.55;28.35;;;1.00;99.90;;;;;;5013849;28;20084;-75
2020/12/03 08:25:17;;;;;;;64.13;28.77;;;1.30;99.90;;;;;;5013323;28;20513;-74
2020/12/03 08:27:48;;;;;;;66.18;26.63;;;1.50;99.90;;;;;;5013039;28;20022;-75
2020/12/03 08:30:32;;;;;;;63.75;28.52;;;1.70;99.90;;;;;;5031140;28;20029;-75
2020/12/03 08:33:10;;;;;;;68.43;28.67;;;2.00;99.90;;;;;;5030886;28;20544;-75
2020/12/03 08:35:37;;;;;;;69.93;27.83;;;2.10;99.90;;;;;;5030727;28;20033;-75
2020/12/03 08:38:04;;;;;;;65.43;29.17;;;2.20;99.90;;;;;;5030749;28;20033;-75
2020/12/03 08:40:32;;;;;;;66.43;27.67;;;2.30;99.90;;;;;;5013003;28;20112;-74
2020/12/03 08:43:02;;;;;;;58.08;27.60;;;2.30;99.90;;;;;;5030967;28;20017;-75
2020/12/03 08:45:31;;;;;;;61.13;27.52;;;2.50;99.90;;;;;;5012966;28;20025;-74
2020/12/03 08:47:58;;;;;;;65.65;30.55;;;2.50;99.90;;;;;;5012823;28;20033;-75
2020/12/03 08:50:24;;;;;;;61.35;27.67;;;2.50;99.90;;;;;;5012781;28;20026;-75
2020/12/03 08:52:51;;;;;;;58.15;27.08;;;2.70;99.90;;;;;;5030353;28;20108;-75
2020/12/03 08:55:17;;;;;;;66.05;28.00;;;2.90;99.90;;;;;;5030302;28;20113;-75
2020/12/03 08:57:45;;;;;;;58.60;27.58;;;3.20;99.90;;;;;;5030574;28;20526;-76
2020/12/03 09:00:15;;;;;;;57.75;27.00;;;3.30;99.90;;;;;;5030582;28;20036;-75
2020/12/03 09:02:42;;;;;;;78.47;35.75;;;3.50;99.90;;;;;;5030535;28;20022;-75
2020/12/03 09:05:08;;;;;;;54.22;25.20;;;3.50;99.90;;;;;;5030174;28;20025;-75
2020/12/03 09:07:41;;;;;;;205.23;89.20;;;3.50;99.90;;;;;;5030117;28;20470;-75
2020/12/03 09:10:08;;;;;;;109.40;52.20;;;3.50;99.90;;;;;;5012366;28;20029;-75
2020/12/03 09:12:36;;;;;;;69.97;33.35;;;3.40;99.90;;;;;;5030203;28;20029;-75
2020/12/03 09:15:05;;;;;;;67.53;32.85;;;3.20;99.90;;;;;;5030001;28;20435;-75
2020/12/03 09:17:35;;;;;;;56.03;27.13;;;3.10;99.90;;;;;;5029983;28;20022;-75
2020/12/03 09:20:09;;;;;;;61.85;27.27;;;3.10;99.90;;;;;;5012230;28;20112;-75
2020/12/03 09:22:39;;;;;;;64.53;28.73;;;3.00;99.90;;;;;;5012010;28;20032;-75
2020/12/03 09:25:07;;;;;;;68.32;31.35;;;3.20;99.90;;;;;;5012570;28;20112;-75
2020/12/03 09:27:45;;;;;;;67.07;35.55;;;3.30;99.90;;;;;;5011985;28;20112;-75
2020/12/03 09:30:19;;;;;;;69.97;33.03;;;3.40;99.90;;;;;;5030032;28;20034;-75
2020/12/03 09:33:07;;;;;;;81.85;38.30;;;3.50;99.90;;;;;;5011050;28;20117;-75
2020/12/03 09:35:34;;;;;;;64.38;30.60;;;3.60;99.90;;;;;;5029941;28;20510;-75
2020/12/03 09:38:02;;;;;;;78.30;33.60;;;3.80;99.90;;;;;;5029627;28;20064;-75
2020/12/03 09:40:29;;;;;;;73.35;35.40;;;4.00;99.90;;;;;;5012042;28;20037;-75
2020/12/03 09:42:56;;;;;;;62.28;29.20;;;4.30;99.90;;;;;;5029666;28;20029;-75
2020/12/03 09:45:24;;;;;;;66.03;34.03;;;4.40;99.90;;;;;;5029969;28;20463;-75
2020/12/03 09:47:51;;;;;;;60.40;32.20;;;4.50;99.90;;;;;;5029331;28;20025;-75
2020/12/03 09:50:20;;;;;;;50.22;25.63;;;4.40;99.90;;;;;;5011883;28;20509;-74
2020/12/03 09:52:46;;;;;;;73.45;33.53;;;4.30;99.90;;;;;;5011713;28;20080;-74
2020/12/03 09:55:14;;;;;;;59.20;28.42;;;4.30;99.90;;;;;;5029960;28;20421;-75
2020/12/03 09:57:40;;;;;;;56.42;24.50;;;4.30;99.90;;;;;;5029368;28;20048;-75
2020/12/03 10:00:10;;;;;;;101.03;45.72;;;4.40;99.90;;;;;;5029677;28;20021;-74
2020/12/03 10:02:56;;;;;;;154.35;81.85;;;4.30;99.90;;;;;;5029667;28;20025;-75
2020/12/03 10:05:48;;;;;;;60.05;28.05;;;4.50;99.90;;;;;;5012560;28;20049;-75
2020/12/03 10:08:52;;;;;;;59.10;26.05;;;4.60;99.90;;;;;;5032502;28;20446;-75
2020/12/03 10:11:36;;;;;;;56.88;26.55;;;4.70;99.90;;;;;;4997696;28;20466;-74
2020/12/03 10:14:33;;;;;;;57.10;25.85;;;4.90;99.90;;;;;;5030269;28;20032;-74
2020/12/03 10:17:06;;;;;;;51.97;27.63;;;5.10;99.90;;;;;;5029887;28;20022;-75
2020/12/03 10:19:42;;;;;;;60.58;33.55;;;5.40;99.90;;;;;;5029385;28;20072;-74
2020/12/03 10:22:15;;;;;;;53.00;27.40;;;5.90;99.90;;;;;;5029458;28;20104;-75
2020/12/03 10:24:51;;;;;;;48.10;22.75;;;6.60;99.90;;;;;;5011975;28;20044;-75
2020/12/03 10:27:25;;;;;;;44.33;21.35;;;7.80;99.90;;;;;;5029702;28;20088;-75
2020/12/03 10:30:07;;;;;;;44.25;22.08;;;8.80;98.80;;;;;;5029309;28;20024;-75
2020/12/03 10:32:36;;;;;;;43.80;22.60;;;10.20;91.30;;;;;;5029476;28;20022;-75
2020/12/03 10:35:03;;;;;;;42.42;22.80;;;11.10;82.40;;;;;;5011547;28;20057;-73
2020/12/03 10:38:00;;;;;;;47.85;23.92;;;11.00;76.00;;;;;;5011404;28;20064;-75
2020/12/03 10:40:27;;;;;;;40.88;22.58;;;10.60;76.10;;;;;;5021215;28;20073;-75
2020/12/03 10:43:10;;;;;;;45.60;23.73;;;9.90;77.80;;;;;;5029921;28;20398;-75
2020/12/03 10:45:40;;;;;;;42.83;22.10;;;9.90;78.70;;;;;;5015288;28;20036;-75
2020/12/03 10:48:18;;;;;;;44.58;23.38;;;10.10;76.30;;;;;;5032803;28;20026;-73
2020/12/03 10:50:46;;;;;;;43.50;24.05;;;10.70;75.30;;;;;;5032955;28;20022;-73
2020/12/03 10:53:12;;;;;;;47.92;24.65;;;10.70;73.00;;;;;;5032650;28;20021;-73
2020/12/03 10:55:38;;;;;;;42.65;21.98;;;10.10;73.80;;;;;;5032634;28;20021;-75
2020/12/03 10:58:09;;;;;;;37.95;21.73;;;10.10;74.20;;;;;;5014787;28;20021;-75
2020/12/03 11:00:35;;;;;;;45.20;24.33;;;9.30;77.10;;;;;;5014904;28;20028;-75
2020/12/03 11:03:07;;;;;;;40.38;22.48;;;8.60;79.30;;;;;;5032518;28;20120;-75
2020/12/03 11:05:33;;;;;;;42.40;22.20;;;8.20;83.50;;;;;;5032609;28;20017;-75
2020/12/03 11:08:00;;;;;;;41.70;22.08;;;7.80;85.00;;;;;;5032328;28;20284;-75
2020/12/03 11:10:27;;;;;;;44.63;23.00;;;7.70;86.90;;;;;;5014613;28;20022;-75
2020/12/03 11:12:59;;;;;;;43.58;22.40;;;7.60;86.60;;;;;;5032324;28;20112;-75
2020/12/03 11:15:28;;;;;;;43.47;22.40;;;7.50;87.90;;;;;;5032321;28;20025;-75
2020/12/03 11:18:01;;;;;;;40.03;22.42;;;7.50;89.20;;;;;;5014404;28;20116;-76
2020/12/03 11:20:30;;;;;;;41.30;21.30;;;7.20;88.90;;;;;;5032121;28;20021;-76
2020/12/03 11:23:08;;;;;;;41.15;20.73;;;7.10;90.20;;;;;;5032338;28;20368;-75
2020/12/03 11:25:34;;;;;;;43.40;23.27;;;7.10;90.90;;;;;;5032388;28;20026;-75
2020/12/03 11:28:27;;;;;;;41.20;21.52;;;7.20;90.80;;;;;;5031944;28;20075;-75
2020/12/03 11:30:55;;;;;;;45.72;24.50;;;7.70;90.50;;;;;;5032003;28;20021;-75
2020/12/03 11:33:25;;;;;;;39.63;21.27;;;8.10;89.00;;;;;;5014370;28;20456;-75
2020/12/03 11:36:01;;;;;;;44.58;24.50;;;8.20;87.30;;;;;;5031848;28;20028;-75
2020/12/03 11:38:31;;;;;;;68.95;34.35;;;8.20;86.40;;;;;;5014323;28;20025;-75
2020/12/03 11:40:58;;;;;;;39.00;21.05;;;8.30;86.70;;;;;;5031854;28;20044;-75
2020/12/03 11:48:57;;;;;;;40.90;21.08;;;8.30;83.40;;;;;;5031866;28;20048;-75
2020/12/03 11:51:27;;;;;;;35.33;19.25;;;8.80;82.30;;;;;;5013827;28;20021;-76
2020/12/03 11:53:57;;;;;;;33.00;18.67;;;9.10;79.70;;;;;;5013405;28;20104;-75
2020/12/03 11:56:23;;;;;;;46.40;23.63;;;9.30;78.10;;;;;;5031167;28;20030;-75
2020/12/03 11:58:48;;;;;;;33.88;18.95;;;9.80;77.30;;;;;;5031401;28;20040;-75
2020/12/03 12:01:15;;;;;;;32.40;18.50;;;10.30;74.20;;;;;;5013608;28;20124;-73
2020/12/03 12:03:44;;;;;;;75.07;36.10;;;10.70;71.20;;;;;;5031230;28;20067;-73
2020/12/03 12:06:17;;;;;;;106.95;47.72;;;11.20;69.70;;;;;;5031331;28;20071;-75
2020/12/03 12:08:53;;;;;;;105.78;48.63;;;11.00;70.10;;;;;;5031659;28;20032;-75
2020/12/03 12:11:24;;;;;;;206.63;91.45;;;10.40;72.20;;;;;;5032312;28;20021;-75
2020/12/03 12:13:52;;;;;;;146.13;63.50;;;10.00;73.00;;;;;;5031612;28;20033;-75
2020/12/03 12:16:18;;;;;;;42.05;22.67;;;9.80;74.10;;;;;;5032017;28;20025;-75
2020/12/03 12:18:46;;;;;;;30.33;18.33;;;9.40;74.20;;;;;;5031416;28;20030;-74
2020/12/03 12:21:11;;;;;;;30.60;18.45;;;9.60;72.30;;;;;;5031485;28;20108;-75
2020/12/03 12:23:37;;;;;;;54.80;29.85;;;9.70;72.40;;;;;;5031182;28;20109;-75
2020/12/03 12:26:02;;;;;;;47.30;29.65;;;10.10;71.70;;;;;;5030965;28;20422;-75
2020/12/03 12:28:28;;;;;;;32.58;19.38;;;10.60;70.80;;;;;;5030939;28;20603;-75
2020/12/03 12:30:53;;;;;;;94.20;41.53;;;11.90;65.90;;;;;;5031423;28;20029;-75
2020/12/03 12:33:19;;;;;;;48.80;29.42;;;12.50;62.70;;;;;;5013004;28;20021;-75
2020/12/03 12:35:45;;;;;;;46.80;29.35;;;12.50;63.60;;;;;;5012970;28;20160;-73
2020/12/03 12:38:11;;;;;;;39.42;25.17;;;13.40;61.00;;;;;;5012822;28;20026;-75
2020/12/03 12:40:36;;;;;;;41.95;26.38;;;13.90;59.80;;;;;;5012853;28;20500;-75
2020/12/03 12:43:02;;;;;;;43.13;27.73;;;15.00;56.70;;;;;;5030469;28;20018;-73
2020/12/03 12:45:27;;;;;;;32.72;20.65;;;16.30;53.10;;;;;;5030342;28;20540;-75
2020/12/03 12:47:54;;;;;;;31.55;19.83;;;17.10;50.10;;;;;;5012532;28;20041;-74
2020/12/03 12:50:20;;;;;;;33.38;21.70;;;16.70;50.50;;;;;;5030560;28;20028;-73
2020/12/03 12:52:45;;;;;;;31.17;20.42;;;17.40;49.60;;;;;;5030259;28;20021;-73
2020/12/03 12:55:11;;;;;;;33.13;20.58;;;17.60;48.00;;;;;;5012571;28;20175;-73
2020/12/03 12:57:37;;;;;;;34.55;22.25;;;17.70;47.20;;;;;;5030409;28;20025;-74
2020/12/03 13:00:04;;;;;;;31.70;20.85;;;17.10;47.80;;;;;;5030182;28;20026;-73
2020/12/03 13:02:30;;;;;;;32.28;21.27;;;16.80;48.20;;;;;;5030209;28;20025;-73